Time;durP1;ratioP1;P1;durP2;ratioP2;P2;SDS_P1;SDS_P2;PMS_P1;PMS_P2;Temp;Humidity;BMP_temperature;BMP_pressure;BME280_temperature;BME280_humidity;BME280_pressure;Samples;Min_cycle;Max_cycle;Signal;HPM_P1;HPM_P2
2021/01/07 00:02:09;;;;;;;;;;;;;;;-0.07;100.00;100245.47;5113075;28;19977;-69
2021/01/07 00:04:34;;;;;;;;;;;;;;;-0.05;100.00;100245.44;5113217;28;19923;-69
2021/01/07 00:07:00;;;;;;;;;;;;;;;-0.02;100.00;100239.94;5112694;28;19931;-69
2021/01/07 00:09:27;;;;;;;;;;;;;;;-0.04;100.00;100242.69;5112970;28;19931;-70
2021/01/07 00:11:53;;;;;;;;;;;;;;;-0.03;100.00;100235.53;5112752;28;20015;-69
2021/01/07 00:14:19;;;;;;;;;;;;;;;-0.04;100.00;100240.03;5112878;28;20442;-69
2021/01/07 00:16:44;;;;;;;;;;;;;;;-0.07;100.00;100239.28;5112713;28;19963;-69
2021/01/07 00:19:11;;;;;;;;;;;;;;;-0.09;100.00;100238.50;5112858;28;20389;-69
2021/01/07 00:21:37;;;;;;;;;;;;;;;-0.07;100.00;100233.94;5112817;28;20036;-69
2021/01/07 00:24:03;;;;;;;;;;;;;;;-0.07;100.00;100233.94;5111495;28;19939;-69
2021/01/07 00:26:29;;;;;;;;;;;;;;;-0.04;100.00;100224.00;5111179;28;19976;-69
2021/01/07 00:28:55;;;;;;;;;;;;;;;-0.01;100.00;100223.00;5112548;28;20027;-69
2021/01/07 00:31:21;;;;;;;;;;;;;;;0.00;100.00;100232.75;5112560;28;19927;-69
2021/01/07 00:33:46;;;;;;;;;;;;;;;-0.01;100.00;100223.84;5112539;28;19927;-69
2021/01/07 00:36:15;;;;;;;;;;;;;;;0.01;100.00;100236.28;5112266;28;19934;-69
2021/01/07 00:38:41;;;;;;;;;;;;;;;0.00;100.00;100230.06;5112493;28;19985;-69
2021/01/07 00:41:07;;;;;;;;;;;;;;;-0.05;100.00;100221.41;5112380;28;19949;-69
2021/01/07 00:43:34;;;;;;;;;;;;;;;-0.05;100.00;100221.41;5112425;28;19927;-69
2021/01/07 00:46:01;;;;;;;;;;;;;;;-0.07;100.00;100221.44;5111481;28;21560;-69
2021/01/07 00:48:26;;;;;;;;;;;;;;;-0.06;100.00;100219.66;5112325;28;19955;-69
2021/01/07 00:50:52;;;;;;;;;;;;;;;-0.06;100.00;100219.66;5110881;28;19928;-69
2021/01/07 00:53:18;;;;;;;;;;;;;;;-0.06;100.00;100225.00;5111191;28;20404;-69
2021/01/07 00:55:44;;;;;;;;;;;;;;;-0.06;100.00;100227.69;5111280;28;19924;-69
2021/01/07 00:58:12;;;;;;;;;;;;;;;-0.07;100.00;100229.47;5111231;28;19981;-69
2021/01/07 01:00:39;;;;;;;;;;;;;;;-0.04;100.00;100232.00;5110978;28;19928;-69
2021/01/07 01:03:05;;;;;;;;;;;;;;;-0.06;100.00;100231.19;5112192;28;20018;-69
2021/01/07 01:05:31;;;;;;;;;;;;;;;-0.06;100.00;100235.69;5112064;28;19969;-69
2021/01/07 01:07:57;;;;;;;;;;;;;;;-0.08;100.00;100238.44;5111990;28;19951;-69
2021/01/07 01:10:23;;;;;;;;;;;;;;;-0.07;100.00;100232.13;5111818;28;19934;-69
2021/01/07 01:12:48;;;;;;;;;;;;;;;-0.08;100.00;100233.09;5112104;28;19955;-69
2021/01/07 01:15:14;;;;;;;;;;;;;;;-0.10;100.00;100234.09;5112141;28;19928;-69
2021/01/07 01:17:41;;;;;;;;;;;;;;;-0.11;100.00;100227.00;5111777;28;20345;-69
2021/01/07 01:20:09;;;;;;;;;;;;;;;-0.09;100.00;100230.50;5112148;28;20022;-69
2021/01/07 01:22:35;;;;;;;;;;;;;;;-0.09;100.00;100234.00;5111918;28;20415;-69
2021/01/07 01:25:01;;;;;;;;;;;;;;;-0.08;100.00;100227.75;5111972;28;20499;-69
2021/01/07 01:27:27;;;;;;;;;;;;;;;-0.06;100.00;100236.53;5115909;28;19966;-69
2021/01/07 01:29:53;;;;;;;;;;;;;;;-0.08;100.00;100235.75;5116132;28;19946;-69
2021/01/07 01:32:19;;;;;;;;;;;;;;;-0.06;100.00;100236.53;5116035;28;19981;-69
2021/01/07 01:34:45;;;;;;;;;;;;;;;-0.06;100.00;100235.69;5116043;28;20150;-69
2021/01/07 01:37:11;;;;;;;;;;;;;;;-0.08;100.00;100233.09;5115711;28;19970;-69
2021/01/07 01:39:37;;;;;;;;;;;;;;;-0.06;100.00;100241.03;5115824;28;19924;-69
2021/01/07 01:42:03;;;;;;;;;;;;;;;-0.11;100.00;100240.34;5115860;28;19973;-69
2021/01/07 01:44:29;;;;;;;;;;;;;;;-0.12;100.00;100238.63;5115620;28;19965;-69
2021/01/07 01:46:55;;;;;;;;;;;;;;;-0.13;100.00;100232.41;5115502;28;20031;-69
2021/01/07 01:49:21;;;;;;;;;;;;;;;-0.11;100.00;100233.19;5115817;28;19931;-69
2021/01/07 01:51:48;;;;;;;;;;;;;;;-0.13;100.00;100234.19;5115611;28;19927;-69
2021/01/07 01:54:14;;;;;;;;;;;;;;;-0.12;100.00;100236.84;5115668;28;19972;-69
2021/01/07 01:56:40;;;;;;;;;;;;;;;-0.11;100.00;100232.34;5115411;28;19927;-69
2021/01/07 01:59:06;;;;;;;;;;;;;;;-0.15;100.00;100226.28;5115577;28;19923;-69
2021/01/07 02:01:32;;;;;;;;;;;;;;;-0.15;100.00;100225.41;5115389;28;19977;-70
2021/01/07 02:03:59;;;;;;;;;;;;;;;-0.12;100.00;100233.28;5114927;28;19923;-69
2021/01/07 02:06:27;;;;;;;;;;;;;;;-0.17;100.00;100223.69;5113034;28;19956;-69
2021/01/07 02:08:54;;;;;;;;;;;;;;;-0.17;100.00;100225.50;5116029;28;19927;-69
2021/01/07 02:11:20;;;;;;;;;;;;;;;-0.14;100.00;100227.16;5116165;28;19924;-69
2021/01/07 02:13:46;;;;;;;;;;;;;;;-0.17;100.00;100228.16;5115275;28;19986;-69
2021/01/07 02:16:18;;;;;;;;;;;;;;;-0.15;100.00;100220.94;5115085;28;19982;-69
2021/01/07 02:18:44;;;;;;;;;;;;;;;-0.16;100.00;100224.56;5115240;28;20026;-69
2021/01/07 02:21:11;;;;;;;;;;;;;;;-0.17;100.00;100234.34;5115199;28;19924;-69
2021/01/07 02:23:45;;;;;;;;;;;;;;;-0.19;100.00;100227.34;5114952;28;19930;-70
2021/01/07 02:26:11;;;;;;;;;;;;;;;-0.22;100.00;100217.69;5114897;28;19959;-69
2021/01/07 02:28:37;;;;;;;;;;;;;;;-0.18;100.00;100224.59;5115125;28;19923;-69
2021/01/07 02:31:02;;;;;;;;;;;;;;;-0.21;100.00;100230.09;5113871;28;20426;-69
2021/01/07 02:33:28;;;;;;;;;;;;;;;-0.24;100.00;100224.00;5115035;28;19923;-70
2021/01/07 02:35:54;;;;;;;;;;;;;;;-0.27;100.00;100222.34;5114706;28;19928;-69
2021/01/07 02:38:21;;;;;;;;;;;;;;;-0.24;100.00;100230.22;5113568;28;19923;-69
2021/01/07 02:40:46;;;;;;;;;;;;;;;-0.24;100.00;100229.34;5114508;28;20014;-69
2021/01/07 02:43:12;;;;;;;;;;;;;;;-0.24;100.00;100224.91;5114722;28;19923;-69
2021/01/07 02:45:38;;;;;;;;;;;;;;;-0.29;100.00;100223.38;5114338;28;19923;-69
2021/01/07 02:48:04;;;;;;;;;;;;;;;-0.27;100.00;100222.34;5114719;28;20441;-69
2021/01/07 02:50:30;;;;;;;;;;;;;;;-0.29;100.00;100218.91;5114587;28;19924;-69
2021/01/07 02:52:55;;;;;;;;;;;;;;;-0.25;100.00;100216.97;5114506;28;19924;-69
2021/01/07 02:55:22;;;;;;;;;;;;;;;-0.24;100.00;100211.56;5114553;28;19931;-69
2021/01/07 02:57:48;;;;;;;;;;;;;;;-0.26;100.00;100216.09;5114102;28;19951;-69
2021/01/07 03:00:14;;;;;;;;;;;;;;;-0.25;100.00;100215.16;5114089;28;19930;-69
2021/01/07 03:02:40;;;;;;;;;;;;;;;-0.24;100.00;100221.34;5114206;28;20394;-69
2021/01/07 03:05:06;;;;;;;;;;;;;;;-0.24;100.00;100222.22;5114298;28;19931;-69
2021/01/07 03:07:32;;;;;;;;;;;;;;;-0.25;100.00;100215.16;5114014;28;20038;-69
2021/01/07 03:09:58;;;;;;;;;;;;;;;-0.26;100.00;100212.56;5114197;28;20297;-69
2021/01/07 03:12:24;;;;;;;;;;;;;;;-0.27;100.00;100211.69;5114067;28;19923;-69
2021/01/07 03:14:50;;;;;;;;;;;;;;;-0.31;100.00;100222.56;5114333;28;19931;-69
2021/01/07 03:17:16;;;;;;;;;;;;;;;-0.30;100.00;100217.16;5113787;28;20392;-69
2021/01/07 03:19:42;;;;;;;;;;;;;;;-0.35;100.00;100221.81;5113548;28;19924;-69
2021/01/07 03:22:08;;;;;;;;;;;;;;;-0.36;100.00;100212.06;5113791;28;20385;-69
2021/01/07 03:24:34;;;;;;;;;;;;;;;-0.37;100.00;100213.03;5113886;28;20345;-69
2021/01/07 03:27:00;;;;;;;;;;;;;;;-0.36;100.00;100218.31;5112265;28;20289;-69
2021/01/07 03:29:27;;;;;;;;;;;;;;;-0.35;100.00;100219.16;5113791;28;19924;-69
2021/01/07 03:31:53;;;;;;;;;;;;;;;-0.35;100.00;100216.50;5113796;28;20135;-69
2021/01/07 03:34:19;;;;;;;;;;;;;;;-0.39;100.00;100212.22;5113709;28;20026;-69
2021/01/07 03:36:45;;;;;;;;;;;;;;;-0.37;100.00;100210.38;5113115;28;20305;-69
2021/01/07 03:39:10;;;;;;;;;;;;;;;-0.39;100.00;100215.78;5113594;28;19923;-70
2021/01/07 03:41:36;;;;;;;;;;;;;;;-0.40;100.00;100221.16;5113464;28;19974;-69
2021/01/07 03:44:02;;;;;;;;;;;;;;;-0.38;100.00;100225.50;5113550;28;19924;-69
2021/01/07 03:46:29;;;;;;;;;;;;;;;-0.42;100.00;100209.69;5113133;28;20426;-69
2021/01/07 03:48:55;;;;;;;;;;;;;;;-0.39;100.00;100212.22;5113212;28;19966;-69
2021/01/07 03:51:20;;;;;;;;;;;;;;;-0.40;100.00;100213.16;5113341;28;20305;-69
2021/01/07 03:53:46;;;;;;;;;;;;;;;-0.40;100.00;100214.03;5113013;28;20037;-69
2021/01/07 03:56:12;;;;;;;;;;;;;;;-0.39;100.00;100213.09;5113155;28;19969;-69
2021/01/07 03:58:38;;;;;;;;;;;;;;;-0.41;100.00;100212.28;5113279;28;19928;-69
2021/01/07 04:01:04;;;;;;;;;;;;;;;-0.40;100.00;100215.81;5113059;28;19931;-69
2021/01/07 04:03:30;;;;;;;;;;;;;;;-0.42;100.00;100212.38;5113057;28;19924;-69
2021/01/07 04:05:56;;;;;;;;;;;;;;;-0.43;100.00;100213.28;5112838;28;20010;-69
2021/01/07 04:08:22;;;;;;;;;;;;;;;-0.46;100.00;100208.97;5113097;28;19924;-69
2021/01/07 04:10:48;;;;;;;;;;;;;;;-0.44;100.00;100214.22;5112883;28;19967;-69
2021/01/07 04:13:14;;;;;;;;;;;;;;;-0.44;100.00;100208.88;5112715;28;20026;-69
2021/01/07 04:15:39;;;;;;;;;;;;;;;-0.42;100.00;100212.38;5112289;28;19984;-68
2021/01/07 04:18:05;;;;;;;;;;;;;;;-0.46;100.00;100216.09;5112934;28;19924;-69
2021/01/07 04:20:32;;;;;;;;;;;;;;;-0.44;100.00;100208.88;5112689;28;20026;-69
2021/01/07 04:22:58;;;;;;;;;;;;;;;-0.42;100.00;100209.69;5112878;28;19934;-69
2021/01/07 04:25:23;;;;;;;;;;;;;;;-0.46;100.00;100208.97;5112674;28;20457;-69
2021/01/07 04:27:49;;;;;;;;;;;;;;;-0.45;100.00;100201.84;5112430;28;19927;-69
2021/01/07 04:30:15;;;;;;;;;;;;;;;-0.46;100.00;100197.44;5112406;28;19924;-69
2021/01/07 04:32:41;;;;;;;;;;;;;;;-0.43;100.00;100207.97;5112563;28;19978;-69
2021/01/07 04:35:07;;;;;;;;;;;;;;;-0.45;100.00;100200.03;5112663;28;19924;-69
2021/01/07 04:37:34;;;;;;;;;;;;;;;-0.43;100.00;100207.97;5112350;28;19927;-69
2021/01/07 04:40:00;;;;;;;;;;;;;;;-0.41;100.00;100200.78;5112535;28;19970;-69
2021/01/07 04:42:26;;;;;;;;;;;;;;;-0.42;100.00;100201.69;5112374;28;19967;-69
2021/01/07 04:44:52;;;;;;;;;;;;;;;-0.46;100.00;100200.97;5112348;28;19931;-69
2021/01/07 04:47:18;;;;;;;;;;;;;;;-0.42;100.00;100199.03;5111909;28;19924;-69
2021/01/07 04:49:44;;;;;;;;;;;;;;;-0.44;100.00;100199.09;5112303;28;20022;-69
2021/01/07 04:52:09;;;;;;;;;;;;;;;-0.48;100.00;100204.63;5112226;28;19925;-69
2021/01/07 04:54:36;;;;;;;;;;;;;;;-0.46;100.00;100203.63;5112298;28;19923;-69
2021/01/07 04:57:02;;;;;;;;;;;;;;;-0.46;100.00;100200.09;5112196;28;19991;-69
2021/01/07 04:59:28;;;;;;;;;;;;;;;-0.45;100.00;100208.03;5112105;28;19924;-69
2021/01/07 05:01:54;;;;;;;;;;;;;;;-0.46;100.00;100202.78;5111690;28;19947;-69
2021/01/07 05:04:20;;;;;;;;;;;;;;;-0.45;100.00;100202.69;5112128;28;20006;-70
2021/01/07 05:06:47;;;;;;;;;;;;;;;-0.47;100.00;100209.03;5111779;28;20276;-69
2021/01/07 05:09:12;;;;;;;;;;;;;;;-0.48;100.00;100201.97;5112123;28;19974;-68
2021/01/07 05:11:39;;;;;;;;;;;;;;;-0.46;100.00;100203.63;5111931;28;20377;-69
2021/01/07 05:14:06;;;;;;;;;;;;;;;-0.50;100.00;100204.69;5112262;28;20396;-69
2021/01/07 05:16:32;;;;;;;;;;;;;;;-0.51;100.00;100203.84;5111684;28;20015;-69
2021/01/07 05:18:58;;;;;;;;;;;;;;;-0.47;100.00;100201.03;5112093;28;19923;-69
2021/01/07 05:21:24;;;;;;;;;;;;;;;-0.52;100.00;100209.25;5112035;28;19970;-68
2021/01/07 05:23:51;;;;;;;;;;;;;;;-0.47;100.00;100207.22;5110458;28;20313;-68
2021/01/07 05:26:18;;;;;;;;;;;;;;;-0.49;100.00;100210.88;5111624;28;20336;-69
2021/01/07 05:28:45;;;;;;;;;;;;;;;-0.50;100.00;100202.03;5111825;28;19928;-68
2021/01/07 05:31:11;;;;;;;;;;;;;;;-0.52;100.00;100199.44;5111757;28;19982;-69
2021/01/07 05:33:38;;;;;;;;;;;;;;;-0.52;100.00;100207.44;5112015;28;20541;-69
2021/01/07 05:36:16;;;;;;;;;;;;;;;-0.50;100.00;100210.03;5111741;28;20057;-68
2021/01/07 05:38:41;;;;;;;;;;;;;;;-0.51;100.00;100206.50;5111701;28;19982;-69
2021/01/07 05:41:11;;;;;;;;;;;;;;;-0.48;100.00;100210.84;5111586;28;19946;-68
2021/01/07 05:43:37;;;;;;;;;;;;;;;-0.46;100.00;100210.78;5111629;28;19951;-69
2021/01/07 05:46:06;;;;;;;;;;;;;;;-0.47;100.00;100203.69;5111346;28;20396;-68
2021/01/07 05:48:32;;;;;;;;;;;;;;;-0.47;100.00;100209.88;5111610;28;20025;-68
2021/01/07 05:51:02;;;;;;;;;;;;;;;-0.46;100.00;100202.78;5111560;28;20378;-68
2021/01/07 05:53:28;;;;;;;;;;;;;;;-0.51;100.00;100206.50;5111702;28;19971;-69
2021/01/07 05:55:55;;;;;;;;;;;;;;;-0.51;100.00;100211.84;5101328;28;20031;-69
2021/01/07 05:58:22;;;;;;;;;;;;;;;-0.50;100.00;100220.69;5103152;28;19974;-68
2021/01/07 06:00:49;;;;;;;;;;;;;;;-0.51;100.00;100211.84;5106573;28;20018;-68
2021/01/07 06:03:18;;;;;;;;;;;;;;;-0.48;100.00;100212.63;5110451;28;19970;-68
2021/01/07 06:05:45;;;;;;;;;;;;;;;-0.54;100.00;100209.28;5098827;28;20016;-68
2021/01/07 06:08:15;;;;;;;;;;;;;;;-0.49;100.00;100216.22;5111187;28;19970;-68
2021/01/07 06:10:42;;;;;;;;;;;;;;;-0.49;100.00;100211.78;5099527;28;20002;-68
2021/01/07 06:13:09;;;;;;;;;;;;;;;-0.48;100.00;100210.84;5094549;28;20023;-68
2021/01/07 06:15:35;;;;;;;;;;;;;;;-0.51;100.00;100208.28;5097542;28;19931;-68
2021/01/07 06:18:01;;;;;;;;;;;;;;;-0.48;100.00;100205.50;5113376;28;19966;-68
2021/01/07 06:20:31;;;;;;;;;;;;;;;-0.47;100.00;100222.38;5098857;28;19927;-68
2021/01/07 06:22:57;;;;;;;;;;;;;;;-0.48;100.00;100218.84;5114991;28;19923;-68
2021/01/07 06:25:23;;;;;;;;;;;;;;;-0.45;100.00;100212.50;5094598;28;19924;-68
2021/01/07 06:27:49;;;;;;;;;;;;;;;-0.49;100.00;100210.88;5106934;28;19928;-68
2021/01/07 06:30:32;;;;;;;;;;;;;;;-0.47;100.00;100212.56;5114734;28;20396;-67
2021/01/07 06:33:03;;;;;;;;;;;;;;;-0.48;100.00;100209.97;5094250;28;19924;-68
2021/01/07 06:35:33;;;;;;;;;;;;;;;-0.44;100.00;100211.56;5095154;28;20393;-68
2021/01/07 06:37:59;;;;;;;;;;;;;;;-0.45;100.00;100217.84;5114369;28;19923;-68
2021/01/07 06:40:26;;;;;;;;;;;;;;;-0.43;100.00;100216.81;5112660;28;20411;-68
2021/01/07 06:42:53;;;;;;;;;;;;;;;-0.43;100.00;100221.31;5100670;28;19950;-69
2021/01/07 06:45:21;;;;;;;;;;;;;;;-0.41;100.00;100216.78;5105764;28;19980;-68
2021/01/07 06:47:48;;;;;;;;;;;;;;;-0.41;100.00;100219.44;5110752;28;20018;-68
2021/01/07 06:50:14;;;;;;;;;;;;;;;-0.46;100.00;100232.09;5106616;28;20096;-68
2021/01/07 06:52:41;;;;;;;;;;;;;;;-0.47;100.00;100219.69;5113612;28;20407;-68
2021/01/07 06:55:09;;;;;;;;;;;;;;;-0.42;100.00;100217.69;5112056;28;20390;-68
2021/01/07 06:57:39;;;;;;;;;;;;;;;-0.40;100.00;100226.50;5100729;28;20404;-66
2021/01/07 07:00:06;;;;;;;;;;;;;;;-0.46;100.00;100226.78;5093871;28;20010;-66
2021/01/07 07:02:32;;;;;;;;;;;;;;;-0.44;100.00;100233.78;5105697;28;20016;-66
2021/01/07 07:04:59;;;;;;;;;;;;;;;-0.44;100.00;100236.44;5104390;28;20424;-67
2021/01/07 07:07:44;;;;;;;;;;;;;;;-0.45;100.00;100234.69;5093400;28;19959;-67
2021/01/07 07:10:28;;;;;;;;;;;;;;;-0.44;100.00;100236.44;5102707;28;19924;-67
2021/01/07 07:12:55;;;;;;;;;;;;;;;-0.40;100.00;100242.50;5113661;28;19928;-66
2021/01/07 07:15:22;;;;;;;;;;;;;;;-0.40;100.00;100245.16;5102660;28;20377;-66
2021/01/07 07:17:48;;;;;;;;;;;;;;;-0.40;100.00;100242.50;5093277;28;20389;-66
2021/01/07 07:20:18;;;;;;;;;;;;;;;-0.38;100.00;100246.81;5107052;28;20464;-66
2021/01/07 07:22:44;;;;;;;;;;;;;;;-0.38;100.00;100246.81;5099824;28;20035;-66
2021/01/07 07:25:10;;;;;;;;;;;;;;;-0.38;100.00;100244.16;5093142;28;19963;-67
2021/01/07 07:27:44;;;;;;;;;;;;;;;-0.37;100.00;100248.56;5098838;28;20010;-67
2021/01/07 07:30:13;;;;;;;;;;;;;;;-0.35;100.00;100246.72;5112218;28;20022;-67
2021/01/07 07:32:43;;;;;;;;;;;;;;;-0.37;100.00;100247.72;5112725;28;20022;-67
2021/01/07 07:35:20;;;;;;;;;;;;;;;-0.36;100.00;100250.31;5113802;28;20038;-67
2021/01/07 07:37:46;;;;;;;;;;;;;;;-0.35;100.00;100252.06;5112380;28;20444;-67
2021/01/07 07:40:21;;;;;;;;;;;;;;;-0.32;100.00;100260.84;5112159;28;19972;-67
2021/01/07 07:42:47;;;;;;;;;;;;;;;-0.32;100.00;100258.16;5112587;28;20014;-67
2021/01/07 07:45:22;;;;;;;;;;;;;;;-0.31;100.00;100260.75;5113316;28;20408;-66
2021/01/07 07:47:48;;;;;;;;;;;;;;;-0.30;100.00;100261.66;5110370;28;20022;-66
2021/01/07 07:50:18;;;;;;;;;;;;;;;-0.30;100.00;100267.84;5112047;28;20409;-66
2021/01/07 07:52:44;;;;;;;;;;;;;;;-0.28;100.00;100260.66;5109019;28;19971;-67
2021/01/07 07:55:11;;;;;;;;;;;;;;;-0.26;100.00;100272.09;5112231;28;19976;-67
2021/01/07 07:57:44;;;;;;;;;;;;;;;-0.32;100.00;100269.72;5108215;28;20010;-67
2021/01/07 08:00:15;;;;;;;;;;;;;;;-0.29;100.00;100276.72;5109382;28;20030;-67
2021/01/07 08:02:42;;;;;;;;;;;;;;;-0.28;100.00;100279.31;5092486;28;19924;-66
2021/01/07 08:05:08;;;;;;;;;;;;;;;-0.27;100.00;100281.03;5108686;28;19959;-66
2021/01/07 08:07:34;;;;;;;;;;;;;;;-0.27;100.00;100281.03;5112473;28;20337;-67
2021/01/07 08:10:09;;;;;;;;;;;;;;;-0.28;100.00;100287.31;5106008;28;20350;-67
2021/01/07 08:12:35;;;;;;;;;;;;;;;-0.28;100.00;100284.66;5092306;28;19967;-67
2021/01/07 08:15:01;;;;;;;;;;;;;;;-0.28;100.00;100292.66;5109709;28;20381;-67
2021/01/07 08:17:28;;;;;;;;;;;;;;;-0.29;100.00;100287.41;5112531;28;20376;-67
2021/01/07 08:19:54;;;;;;;;;;;;;;;-0.28;100.00;100289.09;5111899;28;20014;-67
2021/01/07 08:22:26;;;;;;;;;;;;;;;-0.25;100.00;100291.66;5112545;28;19998;-67
2021/01/07 08:24:52;;;;;;;;;;;;;;;-0.25;100.00;100284.53;5109077;28;19971;-67
2021/01/07 08:27:21;;;;;;;;;;;;;;;-0.24;100.00;100286.25;5091509;28;19970;-67
2021/01/07 08:29:50;;;;;;;;;;;;;;;-0.25;100.00;100289.00;5100037;28;19924;-67
2021/01/07 08:32:17;;;;;;;;;;;;;;;-0.22;100.00;100291.53;5097177;28;19924;-67
2021/01/07 08:34:44;;;;;;;;;;;;;;;-0.21;100.00;100285.25;5098369;28;19924;-68
2021/01/07 08:37:11;;;;;;;;;;;;;;;-0.20;100.00;100290.53;5099989;28;19930;-67
2021/01/07 08:39:38;;;;;;;;;;;;;;;-0.19;100.00;100291.38;5107270;28;20011;-67
2021/01/07 08:42:04;;;;;;;;;;;;;;;-0.21;100.00;100296.78;5092122;28;20337;-67
2021/01/07 08:44:30;;;;;;;;;;;;;;;-0.20;100.00;100289.63;5091916;28;20297;-67
2021/01/07 08:46:56;;;;;;;;;;;;;;;-0.23;100.00;100289.78;5100670;28;19930;-67
2021/01/07 08:49:22;;;;;;;;;;;;;;;-0.22;100.00;100283.53;5092010;28;19924;-67
2021/01/07 08:51:52;;;;;;;;;;;;;;;-0.23;100.00;100277.31;5108069;28;19924;-67
2021/01/07 08:54:19;;;;;;;;;;;;;;;-0.19;100.00;100280.72;5112225;28;20037;-67
2021/01/07 08:56:47;;;;;;;;;;;;;;;-0.15;100.00;100284.97;5095768;28;19931;-67
2021/01/07 08:59:25;;;;;;;;;;;;;;;-0.15;100.00;100278.78;5095725;28;20001;-67
2021/01/07 09:01:51;;;;;;;;;;;;;;;-0.17;100.00;100281.53;5095002;28;19924;-67
2021/01/07 09:04:24;;;;;;;;;;;;;;;-0.17;100.00;100278.84;5106815;28;19931;-67
2021/01/07 09:06:54;;;;;;;;;;;;;;;-0.14;100.00;100280.53;5097795;28;19982;-67
2021/01/07 09:09:20;;;;;;;;;;;;;;;-0.17;100.00;100282.38;5102649;28;20007;-67
2021/01/07 09:11:46;;;;;;;;;;;;;;;-0.12;100.00;100284.84;5109959;28;20286;-67
2021/01/07 09:14:12;;;;;;;;;;;;;;;-0.12;100.00;100279.53;5102663;28;19928;-68
2021/01/07 09:16:38;;;;;;;;;;;;;;;-0.12;100.00;100281.31;5093488;28;19928;-67
2021/01/07 09:19:04;;;;;;;;;;;;;;;-0.09;100.00;100290.06;5101899;28;19930;-67
2021/01/07 09:21:30;;;;;;;;;;;;;;;-0.03;100.00;100283.56;5109324;28;19923;-67
2021/01/07 09:23:57;;;;;;;;;;;;;;;-0.06;100.00;100281.91;5090097;28;20607;-68
2021/01/07 09:26:29;;;;;;;;;;;;;;;-0.07;100.00;100284.66;5109765;28;19923;-67
2021/01/07 09:28:55;;;;;;;;;;;;;;;-0.04;100.00;100290.72;5107178;28;19977;-67
2021/01/07 09:31:20;;;;;;;;;;;;;;;-0.04;100.00;100293.38;5092339;28;19986;-67
2021/01/07 09:33:46;;;;;;;;;;;;;;;-0.06;100.00;100294.38;5092327;28;19931;-66
2021/01/07 09:36:12;;;;;;;;;;;;;;;-0.06;100.00;100289.91;5090813;28;20365;-67
2021/01/07 09:38:38;;;;;;;;;;;;;;;-0.08;100.00;100286.47;5103328;28;19931;-66
2021/01/07 09:41:04;;;;;;;;;;;;;;;-0.05;100.00;100286.31;5101483;28;19924;-67
2021/01/07 09:43:32;;;;;;;;;;;;;;;-0.04;100.00;100288.06;5091413;28;20024;-67
2021/01/07 09:46:00;;;;;;;;;;;;;;;-0.05;100.00;100283.66;5098317;28;19927;-67
2021/01/07 09:48:26;;;;;;;;;;;;;;;-0.06;100.00;100275.72;5113876;28;19930;-67
2021/01/07 09:50:51;;;;;;;;;;;;;;;-0.08;100.00;100289.13;5107286;28;20369;-68
2021/01/07 09:53:20;;;;;;;;;;;;;;;-0.07;100.00;100287.31;5107896;28;19939;-68
2021/01/07 09:55:46;;;;;;;;;;;;;;;-0.03;100.00;100283.56;5113546;28;20033;-68
2021/01/07 09:58:12;;;;;;;;;;;;;;;-0.07;100.00;100296.16;5111464;28;19930;-67
2021/01/07 10:00:38;;;;;;;;;;;;;;;-0.06;100.00;100286.38;5111558;28;19951;-68
2021/01/07 10:03:04;;;;;;;;;;;;;;;-0.04;100.00;100287.16;5096109;28;20364;-68
2021/01/07 10:05:30;;;;;;;;;;;;;;;-0.01;100.00;100284.38;5095291;28;19928;-68
2021/01/07 10:07:58;;;;;;;;;;;;;;;0.03;100.00;100283.31;5115017;28;20204;-68
2021/01/07 10:10:23;;;;;;;;;;;;;;;-0.02;100.00;100285.31;5115210;27;19923;-68
2021/01/07 10:12:49;;;;;;;;;;;;;;;0.03;100.00;100282.41;5094759;28;19931;-68
2021/01/07 10:15:16;;;;;;;;;;;;;;;0.02;100.00;100281.56;5095712;28;19932;-68
2021/01/07 10:17:42;;;;;;;;;;;;;;;0.04;100.00;100290.38;5107350;28;20361;-68
2021/01/07 10:20:08;;;;;;;;;;;;;;;0.04;100.00;100284.16;5101882;28;19977;-68
2021/01/07 10:22:37;;;;;;;;;;;;;;;0.05;100.00;100280.56;5107081;28;19924;-68
2021/01/07 10:25:04;;;;;;;;;;;;;;;0.03;100.00;100280.63;5114915;28;19949;-68
2021/01/07 10:27:30;;;;;;;;;;;;;;;0.04;100.00;100276.16;5105084;28;20010;-68
2021/01/07 10:29:58;;;;;;;;;;;;;;;0.02;100.00;100286.91;5114912;28;19970;-68
2021/01/07 10:32:25;;;;;;;;;;;;;;;0.06;100.00;100284.97;5113507;28;20420;-68
2021/01/07 10:34:51;;;;;;;;;;;;;;;0.05;100.00;100281.41;5114465;28;20479;-68
2021/01/07 10:37:18;;;;;;;;;;;;;;;0.04;100.00;100279.72;5104372;28;19931;-68
2021/01/07 10:39:46;;;;;;;;;;;;;;;0.03;100.00;100277.09;5102126;28;20401;-68
2021/01/07 10:42:12;;;;;;;;;;;;;;;0.06;100.00;100274.31;5114359;28;20022;-68
2021/01/07 10:44:39;;;;;;;;;;;;;;;0.11;100.00;100281.16;5112685;28;20028;-68
2021/01/07 10:47:06;;;;;;;;;;;;;;;0.11;100.00;100281.16;5114256;28;19930;-68
2021/01/07 10:49:33;;;;;;;;;;;;;;;0.06;100.00;100275.16;5108292;28;20023;-69
2021/01/07 10:52:23;;;;;;;;;;;;;;;0.07;100.00;100276.91;5093925;28;20018;-69
2021/01/07 10:54:53;;;;;;;;;;;;;;;0.07;100.00;100268.88;5085521;28;19963;-68
2021/01/07 10:57:27;;;;;;;;;;;;;;;0.11;100.00;100266.97;5113982;28;20472;-67
2021/01/07 11:00:01;;;;;;;;;;;;;;;0.09;100.00;100267.00;5097661;28;19928;-68
2021/01/07 11:02:37;;;;;;;;;;;;;;;0.04;100.00;100268.16;5099986;28;19931;-68
2021/01/07 11:05:09;;;;;;;;;;;;;;;0.05;100.00;100270.75;5113167;28;19923;-68
2021/01/07 11:07:39;;;;;;;;;;;;;;;0.05;100.00;100270.75;5112301;28;19935;-68
2021/01/07 11:10:06;;;;;;;;;;;;;;;0.03;100.00;100269.97;5113786;28;20014;-68
2021/01/07 11:12:35;;;;;;;;;;;;;;;0.08;100.00;100259.94;5113555;28;20446;-68
2021/01/07 11:15:02;;;;;;;;;;;;;;;0.03;100.00;100263.75;5093430;28;20026;-68
2021/01/07 11:17:30;;;;;;;;;;;;;;;0.02;100.00;100260.22;5094470;28;19963;-68
2021/01/07 11:19:59;;;;;;;;;;;;;;;-0.01;100.00;100269.22;5102467;28;19981;-68
2021/01/07 11:22:27;;;;;;;;;;;;;;;0.00;100.00;100262.09;5093506;28;20408;-68
2021/01/07 11:24:54;;;;;;;;;;;;;;;-0.02;100.00;100256.81;5098369;28;20317;-68
2021/01/07 11:27:21;;;;;;;;;;;;;;;-0.04;100.00;100261.38;5093077;28;20313;-69
2021/01/07 11:29:47;;;;;;;;;;;;;;;0.01;100.00;100262.97;5094713;28;19967;-68
2021/01/07 11:32:14;;;;;;;;;;;;;;;0.02;100.00;100262.88;5099949;28;19947;-68
2021/01/07 11:34:40;;;;;;;;;;;;;;;-0.02;100.00;100254.13;5097573;28;20277;-69
2021/01/07 11:37:12;;;;;;;;;;;;;;;-0.07;100.00;100248.13;5097047;28;19959;-68
2021/01/07 11:39:44;;;;;;;;;;;;;;;-0.06;100.00;100262.38;5093073;28;20019;-68
2021/01/07 11:42:16;;;;;;;;;;;;;;;-0.03;100.00;100248.88;5094234;28;19975;-69
2021/01/07 11:44:46;;;;;;;;;;;;;;;0.00;100.00;100254.09;5113237;28;19966;-69
2021/01/07 11:47:13;;;;;;;;;;;;;;;0.02;100.00;100249.53;5113046;28;19971;-69
2021/01/07 11:49:40;;;;;;;;;;;;;;;0.05;100.00;100254.72;5113438;28;19989;-69
2021/01/07 11:52:07;;;;;;;;;;;;;;;0.08;100.00;100251.94;5113228;28;19962;-69
2021/01/07 11:54:34;;;;;;;;;;;;;;;0.03;100.00;100243.28;5113382;28;19999;-69
2021/01/07 11:57:01;;;;;;;;;;;;;;;0.07;100.00;100244.88;5112554;28;19968;-69
2021/01/07 11:59:27;;;;;;;;;;;;;;;0.04;100.00;100242.34;5113115;28;19930;-69
2021/01/07 12:01:53;;;;;;;;;;;;;;;0.05;100.00;100244.06;5112720;28;20404;-69
2021/01/07 12:04:20;;;;;;;;;;;;;;;0.03;100.00;100235.28;5113013;28;19946;-69
2021/01/07 12:06:53;;;;;;;;;;;;;;;0.01;100.00;100237.13;5112465;28;20449;-69
2021/01/07 12:09:22;;;;;;;;;;;;;;;0.03;100.00;100243.28;5112810;28;19958;-69
2021/01/07 12:11:52;;;;;;;;;;;;;;;0.04;100.00;100236.13;5112602;28;20022;-69
2021/01/07 12:14:20;;;;;;;;;;;;;;;0.10;100.00;100236.72;5112519;28;19931;-69
2021/01/07 12:16:49;;;;;;;;;;;;;;;0.13;100.00;100241.94;5112471;28;19974;-69
2021/01/07 12:19:15;;;;;;;;;;;;;;;0.16;100.00;100232.88;5112685;28;19928;-69
2021/01/07 12:21:41;;;;;;;;;;;;;;;0.23;100.00;100230.81;5112362;28;19984;-69
2021/01/07 12:24:08;;;;;;;;;;;;;;;0.31;100.00;100234.88;5112295;28;20532;-69
2021/01/07 12:26:34;;;;;;;;;;;;;;;0.42;100.00;100237.03;5111029;28;20373;-69
2021/01/07 12:29:00;;;;;;;;;;;;;;;0.48;100.00;100235.88;5112545;28;19939;-70